sensor_id;sensor_type;location;lat;lon;timestamp;pressure;altitude;pressure_sealevel;temperature;humidity
41573;BME280;27286;47.870;19.006;2022-11-13T00:03:40;100925.31;;;6.28;82.51
41573;BME280;27286;47.870;19.006;2022-11-13T00:06:06;100932.19;;;6.37;82.60
41573;BME280;27286;47.870;19.006;2022-11-13T00:08:32;100926.16;;;6.35;83.02
41573;BME280;27286;47.870;19.006;2022-11-13T00:11:03;100924.44;;;6.37;83.14
41573;BME280;27286;47.870;19.006;2022-11-13T00:13:28;100921.00;;;6.37;83.16
41573;BME280;27286;47.870;19.006;2022-11-13T00:15:59;100921.88;;;6.40;83.12
41573;BME280;27286;47.870;19.006;2022-11-13T00:18:24;100915.81;;;6.35;83.03
41573;BME280;27286;47.870;19.006;2022-11-13T00:20:50;100925.31;;;6.31;83.33
41573;BME280;27286;47.870;19.006;2022-11-13T00:23:15;100915.84;;;6.26;83.48
41573;BME280;27286;47.870;19.006;2022-11-13T00:25:41;100919.28;;;6.29;83.51
41573;BME280;27286;47.870;19.006;2022-11-13T00:28:06;100939.97;;;6.37;82.63
41573;BME280;27286;47.870;19.006;2022-11-13T00:30:31;100940.84;;;6.39;82.71
41573;BME280;27286;47.870;19.006;2022-11-13T00:32:57;100935.69;;;6.39;82.29
41573;BME280;27286;47.870;19.006;2022-11-13T00:35:22;100930.47;;;6.33;82.34
41573;BME280;27286;47.870;19.006;2022-11-13T00:37:47;100925.31;;;6.36;82.73
41573;BME280;27286;47.870;19.006;2022-11-13T00:40:13;100934.81;;;6.42;82.96
41573;BME280;27286;47.870;19.006;2022-11-13T00:42:38;100940.84;;;6.42;83.00
41573;BME280;27286;47.870;19.006;2022-11-13T00:45:04;100931.34;;;6.41;83.04
41573;BME280;27286;47.870;19.006;2022-11-13T00:47:33;100935.66;;;6.42;83.16
41573;BME280;27286;47.870;19.006;2022-11-13T00:49:58;100916.69;;;6.31;83.41
41573;BME280;27286;47.870;19.006;2022-11-13T00:52:24;100933.94;;;6.30;83.60
41573;BME280;27286;47.870;19.006;2022-11-13T00:54:49;100931.34;;;6.24;83.41
41573;BME280;27286;47.870;19.006;2022-11-13T00:57:14;100939.09;;;6.20;83.39
41573;BME280;27286;47.870;19.006;2022-11-13T00:59:40;100912.38;;;5.99;82.69
41573;BME280;27286;47.870;19.006;2022-11-13T01:02:05;100918.41;;;5.95;81.99
41573;BME280;27286;47.870;19.006;2022-11-13T01:04:31;100926.16;;;5.98;82.03
41573;BME280;27286;47.870;19.006;2022-11-13T01:06:56;100921.84;;;5.93;82.13
41573;BME280;27286;47.870;19.006;2022-11-13T01:09:22;100902.84;;;5.86;82.25
41573;BME280;27286;47.870;19.006;2022-11-13T01:11:47;100917.47;;;5.87;82.35
41573;BME280;27286;47.870;19.006;2022-11-13T01:14:12;100925.28;;;5.93;83.36
41573;BME280;27286;47.870;19.006;2022-11-13T01:16:38;100908.88;;;5.87;83.45
41573;BME280;27286;47.870;19.006;2022-11-13T01:19:03;100914.09;;;5.96;83.87
41573;BME280;27286;47.870;19.006;2022-11-13T01:21:28;100908.91;;;5.96;83.97
41573;BME280;27286;47.870;19.006;2022-11-13T01:23:54;100914.09;;;5.97;84.01
41573;BME280;27286;47.870;19.006;2022-11-13T01:26:25;100897.72;;;5.91;83.84
41573;BME280;27286;47.870;19.006;2022-11-13T01:28:52;100902.91;;;5.92;83.56
41573;BME280;27286;47.870;19.006;2022-11-13T01:31:19;100880.44;;;5.79;83.40
41573;BME280;27286;47.870;19.006;2022-11-13T01:33:46;100883.88;;;5.86;82.95
41573;BME280;27286;47.870;19.006;2022-11-13T01:36:15;100886.47;;;5.87;82.72
41573;BME280;27286;47.870;19.006;2022-11-13T01:38:41;100881.28;;;5.83;82.51
41573;BME280;27286;47.870;19.006;2022-11-13T01:41:08;100883.03;;;5.84;82.09
41573;BME280;27286;47.870;19.006;2022-11-13T01:43:37;100887.34;;;5.80;82.55
41573;BME280;27286;47.870;19.006;2022-11-13T01:46:27;100885.63;;;5.76;82.77
41573;BME280;27286;47.870;19.006;2022-11-13T01:51:35;100878.69;;;5.64;83.19
41573;BME280;27286;47.870;19.006;2022-11-13T01:54:06;100876.97;;;5.69;83.53
41573;BME280;27286;47.870;19.006;2022-11-13T01:56:34;100878.72;;;5.72;83.81
41573;BME280;27286;47.870;19.006;2022-11-13T01:59:29;100877.88;;;5.71;84.39
41573;BME280;27286;47.870;19.006;2022-11-13T02:01:53;100883.00;;;5.67;84.26
41573;BME280;27286;47.870;19.006;2022-11-13T02:04:19;100881.28;;;5.66;83.89
41573;BME280;27286;47.870;19.006;2022-11-13T02:06:48;100874.38;;;5.62;83.47
41573;BME280;27286;47.870;19.006;2022-11-13T02:09:15;100874.38;;;5.57;82.87
41573;BME280;27286;47.870;19.006;2022-11-13T02:11:41;100874.34;;;5.53;82.14
41573;BME280;27286;47.870;19.006;2022-11-13T02:14:08;100858.84;;;5.42;82.66
41573;BME280;27286;47.870;19.006;2022-11-13T02:16:35;100870.03;;;5.49;83.09
41573;BME280;27286;47.870;19.006;2022-11-13T02:19:09;100875.22;;;5.49;82.97
41573;BME280;27286;47.870;19.006;2022-11-13T02:21:46;100868.31;;;5.48;82.79
41573;BME280;27286;47.870;19.006;2022-11-13T02:26:48;100873.47;;;5.43;82.74
41573;BME280;27286;47.870;19.006;2022-11-13T02:29:15;100857.94;;;5.35;82.51
41573;BME280;27286;47.870;19.006;2022-11-13T02:31:40;100857.94;;;5.35;82.64
41573;BME280;27286;47.870;19.006;2022-11-13T02:34:06;100854.50;;;5.32;82.69
41573;BME280;27286;47.870;19.006;2022-11-13T02:36:31;100842.41;;;5.20;82.76
41573;BME280;27286;47.870;19.006;2022-11-13T02:39:01;100854.50;;;5.24;82.99
41573;BME280;27286;47.870;19.006;2022-11-13T02:41:27;100842.41;;;5.17;82.82
41573;BME280;27286;47.870;19.006;2022-11-13T02:43:52;100845.84;;;5.13;82.03
41573;BME280;27286;47.870;19.006;2022-11-13T02:46:18;100832.06;;;5.11;81.61
41573;BME280;27286;47.870;19.006;2022-11-13T02:48:43;100837.25;;;5.09;81.99
41573;BME280;27286;47.870;19.006;2022-11-13T02:51:08;100838.09;;;5.10;81.93
41573;BME280;27286;47.870;19.006;2022-11-13T02:53:34;100854.44;;;5.10;81.79
41573;BME280;27286;47.870;19.006;2022-11-13T02:55:59;100842.41;;;5.05;82.28
41573;BME280;27286;47.870;19.006;2022-11-13T02:58:25;100833.75;;;5.03;83.07
41573;BME280;27286;47.870;19.006;2022-11-13T03:00:50;100842.41;;;5.09;83.01
41573;BME280;27286;47.870;19.006;2022-11-13T03:03:15;100832.94;;;5.04;82.52
41573;BME280;27286;47.870;19.006;2022-11-13T03:05:41;100844.94;;;4.99;82.49
41573;BME280;27286;47.870;19.006;2022-11-13T03:08:06;100831.16;;;5.03;82.75
41573;BME280;27286;47.870;19.006;2022-11-13T03:10:32;100831.16;;;5.03;83.23
41573;BME280;27286;47.870;19.006;2022-11-13T03:12:58;100828.59;;;5.00;83.11
41573;BME280;27286;47.870;19.006;2022-11-13T03:15:23;100838.06;;;5.02;83.04
41573;BME280;27286;47.870;19.006;2022-11-13T03:17:49;100845.84;;;5.07;83.03
41573;BME280;27286;47.870;19.006;2022-11-13T03:20:15;100849.28;;;5.06;83.14
41573;BME280;27286;47.870;19.006;2022-11-13T03:22:40;100848.41;;;5.05;83.15
41573;BME280;27286;47.870;19.006;2022-11-13T03:25:06;100842.34;;;5.00;82.22
41573;BME280;27286;47.870;19.006;2022-11-13T03:27:31;100833.72;;;4.92;81.67
41573;BME280;27286;47.870;19.006;2022-11-13T03:29:57;100833.72;;;4.88;81.55
41573;BME280;27286;47.870;19.006;2022-11-13T03:32:23;100846.63;;;4.94;81.91
41573;BME280;27286;47.870;19.006;2022-11-13T03:34:49;100844.06;;;4.91;82.72
41573;BME280;27286;47.870;19.006;2022-11-13T03:37:15;100833.72;;;4.91;83.26
41573;BME280;27286;47.870;19.006;2022-11-13T03:39:40;100831.16;;;4.94;83.46
41573;BME280;27286;47.870;19.006;2022-11-13T03:42:06;100841.53;;;5.04;83.63
41573;BME280;27286;47.870;19.006;2022-11-13T03:44:31;100832.94;;;5.05;83.58
41573;BME280;27286;47.870;19.006;2022-11-13T03:46:56;100832.06;;;5.06;84.05
41573;BME280;27286;47.870;19.006;2022-11-13T03:49:22;100840.69;;;5.07;84.50
41573;BME280;27286;47.870;19.006;2022-11-13T03:51:47;100834.66;;;5.09;84.57
41573;BME280;27286;47.870;19.006;2022-11-13T03:54:13;100837.25;;;5.17;84.83
41573;BME280;27286;47.870;19.006;2022-11-13T03:56:38;100843.31;;;5.21;84.75
41573;BME280;27286;47.870;19.006;2022-11-13T03:59:03;100840.72;;;5.21;84.82
41573;BME280;27286;47.870;19.006;2022-11-13T04:01:29;100830.38;;;5.16;85.26
41573;BME280;27286;47.870;19.006;2022-11-13T04:03:54;100844.16;;;5.21;85.50
41573;BME280;27286;47.870;19.006;2022-11-13T04:06:20;100852.78;;;5.22;85.73
41573;BME280;27286;47.870;19.006;2022-11-13T04:08:47;100839.81;;;5.17;85.30
41573;BME280;27286;47.870;19.006;2022-11-13T04:11:13;100834.66;;;5.12;85.33
41573;BME280;27286;47.870;19.006;2022-11-13T04:13:38;100843.25;;;5.10;85.67
41573;BME280;27286;47.870;19.006;2022-11-13T04:16:04;100845.84;;;5.10;86.15
41573;BME280;27286;47.870;19.006;2022-11-13T04:18:30;100847.56;;;5.11;86.32
41573;BME280;27286;47.870;19.006;2022-11-13T04:20:59;100850.16;;;5.14;86.41
41573;BME280;27286;47.870;19.006;2022-11-13T04:23:25;100847.56;;;5.08;86.64
41573;BME280;27286;47.870;19.006;2022-11-13T04:25:51;100852.72;;;5.08;87.22
41573;BME280;27286;47.870;19.006;2022-11-13T04:28:16;100853.56;;;5.05;86.90
41573;BME280;27286;47.870;19.006;2022-11-13T04:30:41;100844.97;;;5.06;86.33
41573;BME280;27286;47.870;19.006;2022-11-13T04:33:07;100845.84;;;5.04;86.49
41573;BME280;27286;47.870;19.006;2022-11-13T04:35:33;100848.41;;;5.05;86.25
41573;BME280;27286;47.870;19.006;2022-11-13T04:37:58;100833.75;;;4.97;85.96
41573;BME280;27286;47.870;19.006;2022-11-13T04:40:24;100840.63;;;5.01;85.73
41573;BME280;27286;47.870;19.006;2022-11-13T04:42:49;100848.38;;;5.01;85.38
41573;BME280;27286;47.870;19.006;2022-11-13T04:45:20;100838.03;;;4.90;84.65
41573;BME280;27286;47.870;19.006;2022-11-13T04:47:47;100833.69;;;4.81;85.05
41573;BME280;27286;47.870;19.006;2022-11-13T04:50:13;100845.72;;;4.84;85.50
41573;BME280;27286;47.870;19.006;2022-11-13T04:52:39;100844.00;;;4.81;85.27
41573;BME280;27286;47.870;19.006;2022-11-13T04:55:05;100845.72;;;4.84;85.18
41573;BME280;27286;47.870;19.006;2022-11-13T04:57:31;100855.19;;;4.83;84.92
41573;BME280;27286;47.870;19.006;2022-11-13T04:59:56;100853.47;;;4.81;84.33
41573;BME280;27286;47.870;19.006;2022-11-13T05:02:22;100836.22;;;4.71;84.50
41573;BME280;27286;47.870;19.006;2022-11-13T05:04:48;100850.00;;;4.74;84.00
41573;BME280;27286;47.870;19.006;2022-11-13T05:07:13;100837.09;;;4.71;83.97
41573;BME280;27286;47.870;19.006;2022-11-13T05:09:39;100843.97;;;4.74;83.67
41573;BME280;27286;47.870;19.006;2022-11-13T05:12:04;100840.53;;;4.73;83.33
41573;BME280;27286;47.870;19.006;2022-11-13T05:14:34;100831.88;;;4.68;83.15
41573;BME280;27286;47.870;19.006;2022-11-13T05:17:02;100846.53;;;4.71;83.56
41573;BME280;27286;47.870;19.006;2022-11-13T05:19:27;100848.22;;;4.66;83.95
41573;BME280;27286;47.870;19.006;2022-11-13T05:21:53;100851.66;;;4.68;83.72
41573;BME280;27286;47.870;19.006;2022-11-13T05:24:20;100838.72;;;4.59;84.50
41573;BME280;27286;47.870;19.006;2022-11-13T05:26:46;100830.13;;;4.58;84.37
41573;BME280;27286;47.870;19.006;2022-11-13T05:29:11;100830.13;;;4.55;84.12
41573;BME280;27286;47.870;19.006;2022-11-13T05:31:36;100830.91;;;4.46;81.27
41573;BME280;27286;47.870;19.006;2022-11-13T05:34:03;100838.38;;;4.04;81.12
41573;BME280;27286;47.870;19.006;2022-11-13T05:36:29;100839.72;;;3.60;81.88
41573;BME280;27286;47.870;19.006;2022-11-13T05:38:55;100842.31;;;3.65;85.13
41573;BME280;27286;47.870;19.006;2022-11-13T05:41:21;100834.50;;;3.54;85.12
41573;BME280;27286;47.870;19.006;2022-11-13T05:43:47;100835.22;;;3.40;85.67
41573;BME280;27286;47.870;19.006;2022-11-13T05:49:00;100832.69;;;3.46;90.04
41573;BME280;27286;47.870;19.006;2022-11-13T05:51:29;100842.13;;;3.45;87.54
41573;BME280;27286;47.870;19.006;2022-11-13T05:53:56;100824.78;;;3.26;88.47
41573;BME280;27286;47.870;19.006;2022-11-13T05:59:17;100839.50;;;3.39;90.51
41573;BME280;27286;47.870;19.006;2022-11-13T06:01:42;100838.56;;;3.31;89.05
41573;BME280;27286;47.870;19.006;2022-11-13T06:04:09;100855.72;;;3.30;88.39
41573;BME280;27286;47.870;19.006;2022-11-13T06:06:35;100841.81;;;3.18;89.70
41573;BME280;27286;47.870;19.006;2022-11-13T06:09:06;100856.72;;;3.43;92.54
41573;BME280;27286;47.870;19.006;2022-11-13T06:11:35;100845.31;;;3.21;89.73
41573;BME280;27286;47.870;19.006;2022-11-13T06:16:54;100850.59;;;3.33;90.40
41573;BME280;27286;47.870;19.006;2022-11-13T06:19:32;100847.84;;;3.18;88.30
41573;BME280;27286;47.870;19.006;2022-11-13T06:24:41;100841.81;;;3.15;90.34
41573;BME280;27286;47.870;19.006;2022-11-13T06:32:36;100859.78;;;3.12;89.49
41573;BME280;27286;47.870;19.006;2022-11-13T06:37:36;100832.56;;;3.32;89.83
41573;BME280;27286;47.870;19.006;2022-11-13T06:40:03;100847.09;;;3.28;89.06
41573;BME280;27286;47.870;19.006;2022-11-13T06:48:18;100840.38;;;3.40;88.91
41573;BME280;27286;47.870;19.006;2022-11-13T06:50:43;100848.88;;;3.34;88.89
41573;BME280;27286;47.870;19.006;2022-11-13T06:53:13;100856.69;;;3.40;89.91
41573;BME280;27286;47.870;19.006;2022-11-13T06:55:46;100843.00;;;3.47;91.77
41573;BME280;27286;47.870;19.006;2022-11-13T06:58:15;100856.88;;;3.58;90.37
41573;BME280;27286;47.870;19.006;2022-11-13T07:01:13;100863.78;;;3.64;90.78
41573;BME280;27286;47.870;19.006;2022-11-13T07:03:43;100855.34;;;3.80;91.55
41573;BME280;27286;47.870;19.006;2022-11-13T07:06:29;100841.88;;;4.15;95.01
41573;BME280;27286;47.870;19.006;2022-11-13T07:08:55;100856.56;;;4.25;94.96
41573;BME280;27286;47.870;19.006;2022-11-13T07:11:22;100854.00;;;4.27;94.83
41573;BME280;27286;47.870;19.006;2022-11-13T07:13:48;100859.28;;;4.45;95.18
41573;BME280;27286;47.870;19.006;2022-11-13T07:16:14;100843.03;;;4.55;94.36
41573;BME280;27286;47.870;19.006;2022-11-13T07:18:47;100851.56;;;4.48;91.54
41573;BME280;27286;47.870;19.006;2022-11-13T07:21:13;100848.97;;;4.49;91.92
41573;BME280;27286;47.870;19.006;2022-11-13T07:23:39;100863.75;;;4.76;93.58
41573;BME280;27286;47.870;19.006;2022-11-13T07:26:09;100857.75;;;4.80;93.26
41573;BME280;27286;47.870;19.006;2022-11-13T07:28:35;100863.81;;;4.89;94.13
41573;BME280;27286;47.870;19.006;2022-11-13T07:31:00;100859.56;;;4.98;95.67
41573;BME280;27286;47.870;19.006;2022-11-13T07:33:26;100848.41;;;5.08;96.46
41573;BME280;27286;47.870;19.006;2022-11-13T07:35:55;100851.91;;;5.27;96.98
41573;BME280;27286;47.870;19.006;2022-11-13T07:38:22;100853.69;;;5.48;96.78
41573;BME280;27286;47.870;19.006;2022-11-13T07:40:48;100840.81;;;5.63;96.15
41573;BME280;27286;47.870;19.006;2022-11-13T07:43:13;100849.41;;;5.87;95.56
41573;BME280;27286;47.870;19.006;2022-11-13T07:45:38;100858.06;;;6.04;94.97
41573;BME280;27286;47.870;19.006;2022-11-13T07:48:04;100856.38;;;6.24;94.33
41573;BME280;27286;47.870;19.006;2022-11-13T07:50:34;100849.44;;;6.42;94.32
41573;BME280;27286;47.870;19.006;2022-11-13T07:53:03;100849.41;;;6.60;93.76
41573;BME280;27286;47.870;19.006;2022-11-13T07:55:31;100856.25;;;6.72;93.34
41573;BME280;27286;47.870;19.006;2022-11-13T07:57:58;100861.41;;;6.82;92.68
41573;BME280;27286;47.870;19.006;2022-11-13T08:00:25;100862.22;;;6.97;92.42
41573;BME280;27286;47.870;19.006;2022-11-13T08:02:51;100848.38;;;7.07;92.14
41573;BME280;27286;47.870;19.006;2022-11-13T08:05:17;100854.34;;;7.19;91.42
41573;BME280;27286;47.870;19.006;2022-11-13T08:07:45;100874.19;;;7.28;91.35
41573;BME280;27286;47.870;19.006;2022-11-13T08:10:11;100861.19;;;7.33;91.06
41573;BME280;27286;47.870;19.006;2022-11-13T08:12:37;100858.56;;;7.39;90.78
41573;BME280;27286;47.870;19.006;2022-11-13T08:15:02;100852.47;;;7.46;90.65
41573;BME280;27286;47.870;19.006;2022-11-13T08:17:28;100853.31;;;7.51;90.42
41573;BME280;27286;47.870;19.006;2022-11-13T08:19:53;100859.34;;;7.58;90.36
41573;BME280;27286;47.870;19.006;2022-11-13T08:22:19;100858.38;;;7.74;90.04
41573;BME280;27286;47.870;19.006;2022-11-13T08:24:44;100845.28;;;7.88;89.60
41573;BME280;27286;47.870;19.006;2022-11-13T08:27:09;100847.81;;;7.95;89.55
41573;BME280;27286;47.870;19.006;2022-11-13T08:29:35;100845.19;;;8.00;89.27
41573;BME280;27286;47.870;19.006;2022-11-13T08:32:02;100841.69;;;8.07;88.60
41573;BME280;27286;47.870;19.006;2022-11-13T08:34:28;100852.00;;;8.13;87.96
41573;BME280;27286;47.870;19.006;2022-11-13T08:36:54;100848.53;;;8.14;87.74
41573;BME280;27286;47.870;19.006;2022-11-13T08:39:19;100849.38;;;8.14;87.16
41573;BME280;27286;47.870;19.006;2022-11-13T08:41:44;100848.53;;;8.14;87.10
41573;BME280;27286;47.870;19.006;2022-11-13T08:44:10;100845.06;;;8.15;86.82
41573;BME280;27286;47.870;19.006;2022-11-13T08:46:37;100862.41;;;8.10;87.32
41573;BME280;27286;47.870;19.006;2022-11-13T08:49:03;100856.34;;;8.09;87.57
41573;BME280;27286;47.870;19.006;2022-11-13T08:51:28;100860.56;;;8.21;87.30
41573;BME280;27286;47.870;19.006;2022-11-13T08:53:54;100839.78;;;8.24;86.70
41573;BME280;27286;47.870;19.006;2022-11-13T08:56:19;100844.84;;;8.39;86.47
41573;BME280;27286;47.870;19.006;2022-11-13T08:58:44;100836.03;;;8.56;86.48
41573;BME280;27286;47.870;19.006;2022-11-13T09:01:10;100841.03;;;8.74;85.79
41573;BME280;27286;47.870;19.006;2022-11-13T09:03:35;100829.69;;;8.81;85.79
41573;BME280;27286;47.870;19.006;2022-11-13T09:06:05;100827.00;;;8.90;85.71
41573;BME280;27286;47.870;19.006;2022-11-13T09:08:31;100824.25;;;9.01;85.59
41573;BME280;27286;47.870;19.006;2022-11-13T09:11:01;100819.84;;;9.08;85.52
41573;BME280;27286;47.870;19.006;2022-11-13T09:13:26;100817.91;;;9.22;85.64
41573;BME280;27286;47.870;19.006;2022-11-13T09:15:51;100837.59;;;9.38;85.04
41573;BME280;27286;47.870;19.006;2022-11-13T09:18:17;100829.75;;;9.44;84.96
41573;BME280;27286;47.870;19.006;2022-11-13T09:20:42;100827.09;;;9.47;84.46
41573;BME280;27286;47.870;19.006;2022-11-13T09:23:08;100826.91;;;9.61;84.75
41573;BME280;27286;47.870;19.006;2022-11-13T09:25:35;100832.00;;;9.67;84.55
41573;BME280;27286;47.870;19.006;2022-11-13T09:28:01;100822.31;;;9.77;84.25
41573;BME280;27286;47.870;19.006;2022-11-13T09:30:28;100822.09;;;9.89;83.86
41573;BME280;27286;47.870;19.006;2022-11-13T09:32:55;100827.19;;;9.97;83.48
41573;BME280;27286;47.870;19.006;2022-11-13T09:35:25;100814.06;;;10.03;83.24
41573;BME280;27286;47.870;19.006;2022-11-13T09:38:10;100830.22;;;10.24;83.05
41573;BME280;27286;47.870;19.006;2022-11-13T09:40:41;100823.16;;;10.31;82.39
41573;BME280;27286;47.870;19.006;2022-11-13T09:46:39;100824.06;;;10.73;82.44
41573;BME280;27286;47.870;19.006;2022-11-13T09:49:20;100823.69;;;10.93;81.80
41573;BME280;27286;47.870;19.006;2022-11-13T09:52:01;100824.25;;;11.07;81.19
41573;BME280;27286;47.870;19.006;2022-11-13T09:54:27;100821.34;;;11.21;80.30
41573;BME280;27286;47.870;19.006;2022-11-13T10:00:12;100814.81;;;11.40;78.71
41573;BME280;27286;47.870;19.006;2022-11-13T10:05:36;100790.38;;;11.46;77.66
41573;BME280;27286;47.870;19.006;2022-11-13T10:10:54;100800.91;;;11.80;77.66
41573;BME280;27286;47.870;19.006;2022-11-13T10:13:33;100785.00;;;11.89;77.27
41573;BME280;27286;47.870;19.006;2022-11-13T10:16:14;100779.59;;;11.97;76.90
41573;BME280;27286;47.870;19.006;2022-11-13T10:18:44;100786.09;;;12.15;76.81
41573;BME280;27286;47.870;19.006;2022-11-13T10:21:43;100772.06;;;12.19;76.58
41573;BME280;27286;47.870;19.006;2022-11-13T10:24:23;100769.03;;;12.34;76.06
41573;BME280;27286;47.870;19.006;2022-11-13T10:26:49;100762.69;;;12.44;75.42
41573;BME280;27286;47.870;19.006;2022-11-13T10:29:17;100760.56;;;12.57;75.14
41573;BME280;27286;47.870;19.006;2022-11-13T10:31:48;100764.69;;;12.65;75.11
41573;BME280;27286;47.870;19.006;2022-11-13T10:34:17;100756.41;;;12.81;74.48
41573;BME280;27286;47.870;19.006;2022-11-13T10:39:20;100750.56;;;13.01;73.60
41573;BME280;27286;47.870;19.006;2022-11-13T10:41:51;100745.84;;;13.13;73.17
41573;BME280;27286;47.870;19.006;2022-11-13T10:44:24;100746.28;;;13.28;72.43
41573;BME280;27286;47.870;19.006;2022-11-13T10:46:50;100748.75;;;13.32;72.18
41573;BME280;27286;47.870;19.006;2022-11-13T10:49:25;100751.00;;;13.43;71.50
41573;BME280;27286;47.870;19.006;2022-11-13T10:51:55;100751.47;;;13.55;71.06
41573;BME280;27286;47.870;19.006;2022-11-13T10:54:26;100732.03;;;13.64;70.94
41573;BME280;27286;47.870;19.006;2022-11-13T10:57:04;100738.34;;;13.83;70.29
41573;BME280;27286;47.870;19.006;2022-11-13T10:59:43;100726.56;;;13.97;69.64
41573;BME280;27286;47.870;19.006;2022-11-13T11:02:23;100726.22;;;14.06;69.18
41573;BME280;27286;47.870;19.006;2022-11-13T11:05:00;100717.09;;;14.18;68.97
41573;BME280;27286;47.870;19.006;2022-11-13T11:07:26;100709.72;;;14.27;68.58
41573;BME280;27286;47.870;19.006;2022-11-13T11:09:51;100710.16;;;14.40;68.12
41573;BME280;27286;47.870;19.006;2022-11-13T11:12:22;100714.31;;;14.47;67.65
41573;BME280;27286;47.870;19.006;2022-11-13T11:22:46;100712.97;;;14.82;66.05
41573;BME280;27286;47.870;19.006;2022-11-13T11:25:17;100700.34;;;14.92;65.29
41573;BME280;27286;47.870;19.006;2022-11-13T11:30:46;100704.50;;;15.19;64.32
41573;BME280;27286;47.870;19.006;2022-11-13T11:33:43;100700.88;;;15.44;63.67
41573;BME280;27286;47.870;19.006;2022-11-13T11:36:39;100697.16;;;15.91;62.05
41573;BME280;27286;47.870;19.006;2022-11-13T11:42:08;100678.09;;;17.56;55.89
41573;BME280;27286;47.870;19.006;2022-11-13T11:47:18;100675.50;;;19.49;50.30
41573;BME280;27286;47.870;19.006;2022-11-13T11:49:44;100671.38;;;20.32;47.88
41573;BME280;27286;47.870;19.006;2022-11-13T11:54:56;100656.44;;;21.28;44.79
41573;BME280;27286;47.870;19.006;2022-11-13T12:00:14;100661.63;;;21.02;45.11
41573;BME280;27286;47.870;19.006;2022-11-13T12:05:44;100657.56;;;20.13;46.99
41573;BME280;27286;47.870;19.006;2022-11-13T12:10:51;100657.56;;;19.24;49.41
41573;BME280;27286;47.870;19.006;2022-11-13T12:13:33;100642.72;;;18.92;50.38
41573;BME280;27286;47.870;19.006;2022-11-13T12:16:15;100647.13;;;18.60;50.67
41573;BME280;27286;47.870;19.006;2022-11-13T12:22:09;100645.94;;;18.50;51.62
41573;BME280;27286;47.870;19.006;2022-11-13T12:25:00;100633.84;;;18.61;51.67
41573;BME280;27286;47.870;19.006;2022-11-13T12:30:08;100618.22;;;19.50;48.79
41573;BME280;27286;47.870;19.006;2022-11-13T12:35:24;100613.81;;;20.64;44.89
41573;BME280;27286;47.870;19.006;2022-11-13T12:46:34;100587.63;;;24.16;37.79
41573;BME280;27286;47.870;19.006;2022-11-13T12:49:02;100588.75;;;25.11;36.60
41573;BME280;27286;47.870;19.006;2022-11-13T12:51:39;100580.13;;;25.82;34.59
41573;BME280;27286;47.870;19.006;2022-11-13T12:54:05;100582.69;;;26.33;33.52
41573;BME280;27286;47.870;19.006;2022-11-13T12:56:31;100575.31;;;26.46;32.47
41573;BME280;27286;47.870;19.006;2022-11-13T13:02:20;100573.09;;;26.80;31.60
41573;BME280;27286;47.870;19.006;2022-11-13T13:10:35;100580.00;;;26.23;32.12
41573;BME280;27286;47.870;19.006;2022-11-13T13:15:44;100569.78;;;24.73;34.63
41573;BME280;27286;47.870;19.006;2022-11-13T13:23:30;100569.88;;;22.78;38.40
41573;BME280;27286;47.870;19.006;2022-11-13T13:28:38;100573.19;;;21.83;40.66
41573;BME280;27286;47.870;19.006;2022-11-13T13:39:07;100564.00;;;20.71;43.47
41573;BME280;27286;47.870;19.006;2022-11-13T13:42:05;100562.34;;;20.56;44.15
41573;BME280;27286;47.870;19.006;2022-11-13T13:49:45;100557.13;;;20.68;43.63
41573;BME280;27286;47.870;19.006;2022-11-13T13:52:13;100563.53;;;20.91;43.22
41573;BME280;27286;47.870;19.006;2022-11-13T13:54:40;100552.56;;;21.10;42.71
41573;BME280;27286;47.870;19.006;2022-11-13T13:57:13;100544.25;;;21.29;42.14
41573;BME280;27286;47.870;19.006;2022-11-13T13:59:40;100538.13;;;21.41;41.58
41573;BME280;27286;47.870;19.006;2022-11-13T14:02:17;100534.63;;;21.53;41.59
41573;BME280;27286;47.870;19.006;2022-11-13T14:04:45;100537.47;;;21.63;41.44
41573;BME280;27286;47.870;19.006;2022-11-13T14:07:21;100542.25;;;21.58;41.70
41573;BME280;27286;47.870;19.006;2022-11-13T14:09:46;100541.50;;;21.43;41.84
41573;BME280;27286;47.870;19.006;2022-11-13T14:12:20;100530.97;;;21.16;42.44
41573;BME280;27286;47.870;19.006;2022-11-13T14:14:46;100527.41;;;20.78;42.76
41573;BME280;27286;47.870;19.006;2022-11-13T14:17:21;100535.94;;;20.41;43.78
41573;BME280;27286;47.870;19.006;2022-11-13T14:19:53;100540.06;;;20.04;44.18
41573;BME280;27286;47.870;19.006;2022-11-13T14:22:20;100536.47;;;19.63;45.44
41573;BME280;27286;47.870;19.006;2022-11-13T14:24:53;100546.88;;;19.21;46.36
41573;BME280;27286;47.870;19.006;2022-11-13T14:27:22;100549.63;;;18.74;47.12
41573;BME280;27286;47.870;19.006;2022-11-13T14:29:58;100555.44;;;18.33;48.45
41573;BME280;27286;47.870;19.006;2022-11-13T14:32:32;100549.13;;;18.04;49.34
41573;BME280;27286;47.870;19.006;2022-11-13T14:35:00;100548.03;;;17.76;50.07
41573;BME280;27286;47.870;19.006;2022-11-13T14:37:30;100549.47;;;17.48;50.59
41573;BME280;27286;47.870;19.006;2022-11-13T14:40:01;100548.19;;;17.22;51.14
41573;BME280;27286;47.870;19.006;2022-11-13T14:42:28;100555.81;;;16.92;51.85
41573;BME280;27286;47.870;19.006;2022-11-13T14:48:32;100540.88;;;16.02;54.15
41573;BME280;27286;47.870;19.006;2022-11-13T14:51:03;100549.66;;;15.63;55.29
41573;BME280;27286;47.870;19.006;2022-11-13T14:53:36;100554.78;;;15.24;56.43
41573;BME280;27286;47.870;19.006;2022-11-13T14:56:07;100546.84;;;14.85;57.79
41573;BME280;27286;47.870;19.006;2022-11-13T14:58:36;100539.63;;;14.48;58.40
41573;BME280;27286;47.870;19.006;2022-11-13T15:01:21;100555.50;;;14.20;59.62
41573;BME280;27286;47.870;19.006;2022-11-13T15:03:48;100549.84;;;13.85;60.71